Time;durP1;ratioP1;P1;durP2;ratioP2;P2;SDS_P1;SDS_P2;PMS_P1;PMS_P2;Temp;Humidity;BMP_temperature;BMP_pressure;BME280_temperature;BME280_humidity;BME280_pressure;Samples;Min_cycle;Max_cycle;Signal;HPM_P1;HPM_P2
2022/06/14 00:01:35;;;;;;;22.15;11.15;;;;;;;11.32;70.46;102316.31;5091926;28;20024;-57
2022/06/14 00:04:01;;;;;;;19.42;10.02;;;;;;;11.23;70.79;102305.78;5092194;28;20107;-55
2022/06/14 00:06:30;;;;;;;19.92;10.30;;;;;;;11.23;71.47;102316.03;5092728;28;20024;-56
2022/06/14 00:08:57;;;;;;;18.60;10.95;;;;;;;11.17;71.37;102325.44;5092544;28;20485;-55
2022/06/14 00:11:29;;;;;;;21.10;10.75;;;;;;;11.06;72.12;102310.72;5091070;28;20016;-55
2022/06/14 00:13:56;;;;;;;19.85;10.43;;;;;;;11.01;72.00;102310.72;5092133;28;20055;-56
2022/06/14 00:16:23;;;;;;;20.23;11.38;;;;;;;11.05;72.44;102317.38;5092387;28;20031;-54
2022/06/14 00:18:48;;;;;;;21.35;11.30;;;;;;;11.05;72.73;102317.38;5091591;28;20379;-54
2022/06/14 00:21:14;;;;;;;21.83;10.45;;;;;;;11.07;72.97;102323.47;5091618;28;20024;-54
2022/06/14 00:23:39;;;;;;;22.88;11.75;;;;;;;11.03;73.07;102325.13;5092095;28;20038;-56
2022/06/14 00:26:07;;;;;;;21.90;10.73;;;;;;;11.01;73.24;102321.78;5091863;28;20131;-55
2022/06/14 00:28:33;;;;;;;20.60;10.70;;;;;;;10.99;73.73;102324.84;5091702;28;20082;-55
2022/06/14 00:31:06;;;;;;;20.42;11.18;;;;;;;10.97;73.46;102326.22;5091377;28;20402;-56
2022/06/14 00:33:31;;;;;;;19.67;10.98;;;;;;;10.95;73.62;102326.50;5089435;28;20136;-56
2022/06/14 00:36:05;;;;;;;19.83;10.57;;;;;;;10.82;74.06;102319.50;5091986;28;20051;-56
2022/06/14 00:38:33;;;;;;;21.48;11.68;;;;;;;10.86;74.15;102323.41;5091897;28;20046;-56
2022/06/14 00:41:00;;;;;;;23.15;11.20;;;;;;;10.85;74.36;102321.75;5091334;28;20028;-56
2022/06/14 00:43:26;;;;;;;21.52;11.10;;;;;;;10.75;75.01;102319.78;5091943;28;20103;-56
2022/06/14 00:45:52;;;;;;;20.20;10.93;;;;;;;10.75;75.20;102319.78;5091692;28;20429;-55
2022/06/14 00:48:25;;;;;;;21.23;10.90;;;;;;;10.84;75.17;102322.03;5091570;28;20103;-55
2022/06/14 00:51:20;;;;;;;19.25;10.60;;;;;;;10.80;74.67;102327.28;5091668;28;20044;-55
2022/06/14 00:54:01;;;;;;;20.83;11.18;;;;;;;10.76;74.19;102329.75;5090095;28;20048;-56
2022/06/14 00:56:33;;;;;;;19.73;10.48;;;;;;;10.70;75.20;102314.22;5091169;28;20035;-56
2022/06/14 00:59:08;;;;;;;21.77;10.68;;;;;;;10.69;75.37;102315.31;5091153;28;20028;-57
2022/06/14 01:01:37;;;;;;;19.92;11.13;;;;;;;10.50;75.42;102290.06;5090822;28;20386;-57
2022/06/14 01:04:11;;;;;;;19.27;10.85;;;;;;;10.56;76.15;102313.88;5091495;28;20032;-56
2022/06/14 01:06:43;;;;;;;19.85;11.45;;;;;;;10.49;76.30;102304.16;5092079;28;20110;-56
2022/06/14 01:09:12;;;;;;;22.10;10.45;;;;;;;10.48;76.38;102311.66;5091250;28;20201;-57
2022/06/14 01:11:43;;;;;;;21.02;11.57;;;;;;;10.34;77.22;102302.97;5091224;28;20035;-56
2022/06/14 01:14:12;;;;;;;23.73;11.10;;;;;;;10.32;77.88;102302.41;5091588;28;20111;-56
2022/06/14 01:16:37;;;;;;;19.85;11.23;;;;;;;10.21;77.93;102303.44;5090811;28;20028;-56
2022/06/14 01:19:08;;;;;;;20.42;11.50;;;;;;;10.12;77.95;102286.53;5090515;28;20027;-55
2022/06/14 01:21:33;;;;;;;22.67;11.50;;;;;;;10.14;77.97;102301.75;5090903;28;20098;-57
2022/06/14 01:23:58;;;;;;;21.15;11.00;;;;;;;10.18;78.26;102304.81;5091120;28;20027;-57
2022/06/14 01:26:26;;;;;;;21.63;11.45;;;;;;;10.22;77.99;102303.19;5091205;28;20086;-55
2022/06/14 01:28:57;;;;;;;22.80;11.43;;;;;;;10.20;78.64;102308.16;5090948;28;20042;-56
2022/06/14 01:31:24;;;;;;;21.25;11.52;;;;;;;10.21;78.79;102300.66;5090939;28;20111;-57
2022/06/14 01:33:54;;;;;;;23.85;11.77;;;;;;;10.16;78.23;102301.47;5090684;28;20098;-57
2022/06/14 01:36:27;;;;;;;22.42;11.20;;;;;;;10.06;78.89;102285.66;5090531;28;20020;-57
2022/06/14 01:38:54;;;;;;;21.08;11.73;;;;;;;10.08;79.42;102299.22;5090957;28;20111;-58
2022/06/14 01:41:27;;;;;;;19.70;11.50;;;;;;;10.06;79.14;102299.50;5090237;28;20066;-56
2022/06/14 01:44:11;;;;;;;23.85;11.55;;;;;;;10.04;79.61;102295.34;5090096;28;20046;-58
2022/06/14 01:47:20;;;;;;;22.38;11.45;;;;;;;10.05;78.50;102306.13;5091221;28;20074;-58
2022/06/14 01:52:52;;;;;;;21.23;11.60;;;;;;;9.86;80.16;102288.28;5090654;28;20477;-57
2022/06/14 01:55:40;;;;;;;20.42;11.07;;;;;;;9.91;79.19;102291.94;5089841;28;20028;-57
2022/06/14 01:58:12;;;;;;;20.75;11.45;;;;;;;9.88;79.65;102289.69;5090354;28;20040;-58
2022/06/14 02:00:50;;;;;;;21.67;11.48;;;;;;;9.82;80.05;102274.19;5089688;28;20036;-57
2022/06/14 02:06:25;;;;;;;20.08;11.30;;;;;;;9.77;79.49;102271.38;5089495;28;20136;-56
2022/06/14 02:08:58;;;;;;;21.85;12.13;;;;;;;9.70;80.42;102277.13;5089921;28;20483;-55
2022/06/14 02:11:31;;;;;;;22.83;11.77;;;;;;;9.72;80.64;102280.47;5090191;28;20068;-57
2022/06/14 02:14:15;;;;;;;19.40;11.48;;;;;;;9.70;80.06;102273.53;5090247;28;20036;-58
2022/06/14 02:17:00;;;;;;;22.05;11.43;;;;;;;9.64;80.87;102275.41;5089795;28;20027;-57
2022/06/14 02:20:07;;;;;;;20.88;11.65;;;;;;;9.59;81.16;102289.22;5090033;28;20050;-57
2022/06/14 02:22:41;;;;;;;20.08;11.40;;;;;;;9.57;81.38;102274.81;5087167;28;20048;-57
2022/06/14 02:25:17;;;;;;;19.85;11.35;;;;;;;9.52;81.14;102272.84;5089793;28;20371;-58
2022/06/14 02:28:01;;;;;;;20.75;11.63;;;;;;;9.35;81.50;102264.72;5090356;28;20091;-57
2022/06/14 02:30:32;;;;;;;21.87;11.83;;;;;;;9.28;82.12;102272.38;5090375;28;20044;-58
2022/06/14 02:33:15;;;;;;;21.67;11.20;;;;;;;9.20;81.56;102265.41;5090231;28;20067;-56
2022/06/14 02:35:58;;;;;;;20.38;11.13;;;;;;;9.26;81.55;102275.41;5089981;28;20107;-54
2022/06/14 02:38:32;;;;;;;21.25;11.27;;;;;;;9.23;82.14;102273.16;5090046;28;20025;-56
2022/06/14 02:41:19;;;;;;;19.77;11.63;;;;;;;9.14;82.20;102261.75;5089560;28;20077;-56
2022/06/14 02:44:11;;;;;;;21.10;11.50;;;;;;;9.09;81.52;102258.94;5089537;28;20024;-55
2022/06/14 02:46:43;;;;;;;20.90;12.48;;;;;;;8.98;82.63;102251.66;5089695;28;20021;-53
2022/06/14 02:49:29;;;;;;;19.23;11.68;;;;;;;8.93;82.78;102252.44;5089954;28;20450;-54
2022/06/14 02:52:07;;;;;;;19.85;11.50;;;;;;;8.89;83.57;102257.63;5090201;28;20024;-54
2022/06/14 02:54:57;;;;;;;22.80;12.05;;;;;;;8.88;83.01;102255.97;5089770;28;20081;-57
2022/06/14 02:57:44;;;;;;;21.10;12.40;;;;;;;8.82;83.14;102250.69;5089165;28;20061;-56
2022/06/14 03:00:20;;;;;;;18.65;11.40;;;;;;;8.81;83.83;102260.88;5089608;28;20047;-54
2022/06/14 03:02:55;;;;;;;18.70;12.02;;;;;;;8.77;83.85;102256.13;5088451;28;20035;-54
2022/06/14 03:05:30;;;;;;;20.23;11.98;;;;;;;8.73;83.90;102261.34;5090155;28;20032;-56
2022/06/14 03:08:05;;;;;;;20.15;11.63;;;;;;;8.57;83.48;102241.88;5089684;28;20446;-55
2022/06/14 03:10:39;;;;;;;20.33;11.52;;;;;;;8.70;83.82;102259.94;5089235;28;20466;-56
2022/06/14 03:13:15;;;;;;;19.15;11.57;;;;;;;8.67;84.65;102263.19;5088928;28;20106;-56
2022/06/14 03:15:48;;;;;;;19.83;11.75;;;;;;;8.54;84.59;102258.91;5088411;28;20146;-55
2022/06/14 03:18:49;;;;;;;20.23;11.65;;;;;;;8.49;84.68;102256.13;5092534;28;20115;-56
2022/06/14 03:21:35;;;;;;;22.30;12.15;;;;;;;8.53;84.30;102268.28;5092599;28;20415;-55
2022/06/14 03:24:10;;;;;;;21.60;12.85;;;;;;;8.51;85.19;102267.69;5092629;28;20032;-56
2022/06/14 03:26:59;;;;;;;20.45;11.95;;;;;;;8.41;85.05;102253.75;5091927;28;20131;-55
2022/06/14 03:29:47;;;;;;;20.42;11.57;;;;;;;8.52;84.75;102265.78;5092938;28;20026;-56
2022/06/14 03:32:39;;;;;;;21.75;11.75;;;;;;;8.46;84.49;102255.72;5092904;28;20036;-56
2022/06/14 03:35:15;;;;;;;22.55;12.35;;;;;;;8.48;84.39;102248.94;5092516;28;20047;-56
2022/06/14 03:37:41;;;;;;;20.10;11.65;;;;;;;8.57;84.62;102258.41;5092522;28;20347;-56
2022/06/14 03:40:14;;;;;;;22.45;12.48;;;;;;;8.57;84.62;102274.09;5092223;28;20034;-55
2022/06/14 03:42:40;;;;;;;21.00;12.48;;;;;;;8.53;84.89;102271.03;5090889;28;20377;-56
2022/06/14 03:45:09;;;;;;;20.15;11.98;;;;;;;8.50;84.53;102266.03;5092457;28;20115;-56
2022/06/14 03:47:35;;;;;;;22.23;11.95;;;;;;;8.47;84.89;102266.56;5092061;28;20024;-55
2022/06/14 03:50:09;;;;;;;20.08;12.30;;;;;;;8.48;84.76;102259.09;5092183;28;20028;-56
2022/06/14 03:52:58;;;;;;;18.52;11.27;;;;;;;8.58;84.33;102267.50;5092785;28;20493;-57
2022/06/14 03:55:55;;;;;;;18.77;11.57;;;;;;;8.72;83.56;102260.50;5092673;28;20021;-57
2022/06/14 03:58:42;;;;;;;20.80;11.52;;;;;;;8.77;84.20;102251.47;5092179;28;20056;-58
2022/06/14 04:01:13;;;;;;;21.98;11.50;;;;;;;8.86;83.06;102257.34;5092365;28;20072;-56
2022/06/14 04:03:45;;;;;;;20.15;11.15;;;;;;;8.92;83.05;102261.81;5092685;28;20453;-57
2022/06/14 04:06:13;;;;;;;19.30;11.50;;;;;;;8.92;83.29;102264.59;5092716;28;20182;-56
2022/06/14 04:09:17;;;;;;;19.90;11.50;;;;;;;8.92;83.47;102269.25;5092179;28;20028;-58
2022/06/14 04:11:57;;;;;;;21.73;11.23;;;;;;;8.87;83.57;102273.66;5091653;28;20096;-57
2022/06/14 04:15:01;;;;;;;20.60;11.00;;;;;;;8.89;83.68;102273.38;5092082;28;20125;-58
2022/06/14 04:17:50;;;;;;;20.73;11.77;;;;;;;8.93;83.70;102270.94;5081238;28;20044;-57
2022/06/14 04:20:33;;;;;;;20.60;11.43;;;;;;;8.97;83.81;102274.84;5092419;28;20048;-58
2022/06/14 04:23:26;;;;;;;20.42;12.43;;;;;;;9.00;83.54;102268.78;5091719;28;20046;-57
2022/06/14 04:26:02;;;;;;;19.48;11.30;;;;;;;9.02;84.57;102272.13;5092101;28;20040;-57
2022/06/14 04:28:38;;;;;;;23.08;12.45;;;;;;;9.05;84.97;102271.63;5091304;28;20056;-57
2022/06/14 04:31:14;;;;;;;22.40;11.43;;;;;;;9.12;85.03;102272.22;5091282;28;20053;-58
2022/06/14 04:33:53;;;;;;;21.23;11.77;;;;;;;9.19;84.62;102277.53;5091997;28;20110;-58
2022/06/14 04:36:29;;;;;;;19.80;11.23;;;;;;;9.30;84.91;102284.00;5091386;28;20523;-57
2022/06/14 04:38:59;;;;;;;19.85;11.95;;;;;;;9.31;84.71;102278.19;5091406;28;20039;-59
2022/06/14 04:41:31;;;;;;;19.80;11.38;;;;;;;9.41;84.49;102276.63;5091675;28;20102;-58
2022/06/14 04:44:24;;;;;;;21.05;11.90;;;;;;;9.45;84.08;102269.47;5091242;28;20100;-58
2022/06/14 04:47:01;;;;;;;26.20;12.80;;;;;;;9.64;84.78;102284.56;5091315;28;20043;-56
2022/06/14 04:49:34;;;;;;;22.13;11.85;;;;;;;9.73;84.60;102281.31;5091601;28;20047;-56
2022/06/14 04:52:13;;;;;;;23.33;12.80;;;;;;;9.82;84.11;102279.72;5091890;28;20226;-56
2022/06/14 04:54:47;;;;;;;22.75;12.20;;;;;;;9.90;84.10;102276.44;5091662;28;20402;-57
2022/06/14 04:57:21;;;;;;;22.95;11.90;;;;;;;9.98;83.75;102275.94;5091109;28;20111;-57
2022/06/14 05:00:03;;;;;;;21.15;11.82;;;;;;;10.15;82.94;102281.28;5090982;28;20039;-56
2022/06/14 05:02:37;;;;;;;20.38;11.90;;;;;;;10.25;82.90;102282.44;5091152;28;20501;-56
2022/06/14 05:05:15;;;;;;;21.40;11.90;;;;;;;10.35;82.84;102276.97;5091457;28;20127;-56
2022/06/14 05:07:52;;;;;;;24.42;12.20;;;;;;;10.49;82.49;102269.03;5092118;28;20161;-55
2022/06/14 05:10:24;;;;;;;22.25;12.23;;;;;;;10.64;82.00;102276.56;5092209;28;20036;-57
2022/06/14 05:12:56;;;;;;;22.17;12.10;;;;;;;10.76;81.67;102279.09;5091755;28;20499;-56
2022/06/14 05:15:32;;;;;;;22.52;12.52;;;;;;;10.81;81.53;102278.28;5091389;28;20055;-55
2022/06/14 05:18:02;;;;;;;23.17;12.30;;;;;;;10.95;81.65;102279.44;5091533;28;20024;-56
2022/06/14 05:20:43;;;;;;;25.50;12.40;;;;;;;11.03;81.99;102298.28;5091554;28;20020;-57
2022/06/14 05:23:18;;;;;;;25.80;12.73;;;;;;;11.12;81.34;102287.47;5091790;28;20078;-57
2022/06/14 05:25:59;;;;;;;25.75;12.75;;;;;;;11.07;81.36;102273.63;5089637;28;20485;-56
2022/06/14 05:28:38;;;;;;;25.30;12.75;;;;;;;11.19;81.45;102282.50;5091222;28;20032;-55
2022/06/14 05:31:13;;;;;;;21.67;12.48;;;;;;;11.29;81.74;102290.00;5091376;28;20024;-56
2022/06/14 05:33:54;;;;;;;27.02;12.75;;;;;;;11.36;81.31;102295.28;5090818;28;20454;-56
2022/06/14 05:36:32;;;;;;;20.80;12.15;;;;;;;11.43;80.91;102293.06;5091078;28;20474;-56
2022/06/14 05:39:05;;;;;;;26.42;12.88;;;;;;;11.46;80.81;102286.13;5090810;28;20024;-56
2022/06/14 05:41:36;;;;;;;25.13;12.75;;;;;;;11.53;80.48;102297.75;5091126;28;20036;-55
2022/06/14 05:44:09;;;;;;;23.60;13.30;;;;;;;11.56;80.10;102291.66;5090820;28;20386;-58
2022/06/14 05:46:38;;;;;;;25.35;13.15;;;;;;;11.47;80.34;102285.88;5091011;28;20107;-57
2022/06/14 05:49:10;;;;;;;24.20;13.38;;;;;;;11.56;80.92;102294.44;5091110;28;20031;-58
2022/06/14 05:51:50;;;;;;;23.40;13.52;;;;;;;11.64;81.05;102299.41;5090854;28;20455;-57
2022/06/14 05:54:38;;;;;;;26.17;13.13;;;;;;;11.82;80.66;102299.97;5090969;28;20087;-57
2022/06/14 05:57:26;;;;;;;22.20;12.45;;;;;;;11.98;79.58;102296.09;5089531;28;20028;-57
2022/06/14 06:00:02;;;;;;;21.63;12.98;;;;;;;12.06;77.05;102296.63;5090836;28;20053;-57
2022/06/14 06:02:37;;;;;;;22.92;12.15;;;;;;;12.10;76.43;102301.34;5090859;28;20035;-57
2022/06/14 06:05:33;;;;;;;25.38;12.57;;;;;;;12.10;75.75;102289.41;5090772;28;20090;-57
2022/06/14 06:08:29;;;;;;;21.73;12.00;;;;;;;12.28;75.29;102304.63;5091055;28;20043;-58
2022/06/14 06:11:03;;;;;;;22.50;11.80;;;;;;;12.39;75.28;102299.84;5090416;28;20118;-57
2022/06/14 06:13:42;;;;;;;24.27;12.35;;;;;;;12.48;74.14;102301.78;5088962;28;20047;-58
2022/06/14 06:16:35;;;;;;;22.02;12.07;;;;;;;12.66;74.41;102304.22;5090791;28;20054;-57
2022/06/14 06:19:12;;;;;;;23.30;11.90;;;;;;;12.73;73.48;102297.22;5090450;28;20028;-57
2022/06/14 06:21:52;;;;;;;23.55;13.00;;;;;;;12.84;72.86;102306.34;5090840;28;20101;-58
2022/06/14 06:24:36;;;;;;;24.73;11.52;;;;;;;13.01;72.95;102300.41;5090912;28;20028;-58
2022/06/14 06:27:08;;;;;;;23.23;11.73;;;;;;;13.17;72.51;102305.88;5089994;28;20084;-57
2022/06/14 06:29:40;;;;;;;19.67;11.07;;;;;;;13.22;69.22;102303.91;5091224;28;20029;-57
2022/06/14 06:32:07;;;;;;;17.90;10.02;;;;;;;13.29;68.54;102284.09;5090731;28;20509;-57
2022/06/14 06:34:34;;;;;;;19.52;10.43;;;;;;;13.42;66.57;102290.97;5090636;28;20028;-58
2022/06/14 06:37:09;;;;;;;20.98;10.30;;;;;;;13.50;67.34;102292.31;5091084;28;20053;-58
2022/06/14 06:39:45;;;;;;;21.33;10.60;;;;;;;13.56;67.14;102305.03;5090555;28;20028;-58
2022/06/14 06:42:27;;;;;;;16.52;8.38;;;;;;;13.66;62.53;102304.94;5090333;28;20028;-58
2022/06/14 06:45:02;;;;;;;17.23;8.90;;;;;;;13.63;61.96;102297.22;5090552;28;20044;-57
2022/06/14 06:47:40;;;;;;;18.60;8.95;;;;;;;13.70;63.74;102300.47;5090409;28;20020;-51
2022/06/14 06:50:17;;;;;;;19.08;9.05;;;;;;;13.81;60.85;102303.97;5090433;28;20036;-57
2022/06/14 06:52:52;;;;;;;18.88;9.32;;;;;;;13.94;63.05;102307.22;5093581;28;20397;-57
2022/06/14 06:55:40;;;;;;;19.60;9.32;;;;;;;13.99;62.00;102304.38;5093643;28;20077;-56
2022/06/14 06:58:30;;;;;;;18.95;9.00;;;;;;;14.08;59.28;102305.38;5072863;28;20056;-56
2022/06/14 07:00:59;;;;;;;19.98;10.35;;;;;;;14.20;58.68;102303.03;5060995;28;20040;-56
2022/06/14 07:03:27;;;;;;;18.17;9.48;;;;;;;14.22;56.25;102299.94;5073609;28;20036;-54
2022/06/14 07:05:58;;;;;;;15.00;8.35;;;;;;;14.18;54.20;102282.19;5078878;28;20056;-56
2022/06/14 07:08:44;;;;;;;16.15;8.70;;;;;;;14.35;54.86;102290.06;5080437;28;20032;-56
2022/06/14 07:11:16;;;;;;;17.10;8.43;;;;;;;14.43;56.63;102289.41;5071978;28;20021;-56
2022/06/14 07:13:59;;;;;;;18.25;8.95;;;;;;;14.63;57.05;102302.25;5071427;28;20024;-57
2022/06/14 07:16:31;;;;;;;16.37;9.10;;;;;;;14.70;56.90;102309.44;5072061;28;20036;-56
2022/06/14 07:19:25;;;;;;;17.02;8.35;;;;;;;14.66;56.27;102311.94;5071959;28;20286;-56
2022/06/14 07:22:08;;;;;;;16.92;8.30;;;;;;;14.77;56.57;102307.13;5070622;28;20044;-57
2022/06/14 07:25:01;;;;;;;15.93;8.23;;;;;;;14.84;54.83;102306.72;5071334;28;20028;-57
2022/06/14 07:27:34;;;;;;;13.15;7.90;;;;;;;14.96;54.21;102301.56;5071791;28;20076;-59
2022/06/14 07:30:14;;;;;;;18.07;9.23;;;;;;;15.04;54.73;102302.84;5071722;28;20031;-55
2022/06/14 07:32:51;;;;;;;16.05;8.35;;;;;;;15.03;53.34;102299.22;5071779;28;20285;-56
2022/06/14 07:35:25;;;;;;;17.58;8.48;;;;;;;15.10;54.44;102304.41;5071856;28;20097;-56
2022/06/14 07:38:33;;;;;;;18.55;8.60;;;;;;;15.13;53.73;102290.72;5071751;28;20032;-56
2022/06/14 07:41:20;;;;;;;18.88;8.27;;;;;;;15.21;52.42;102299.53;5048222;28;20102;-57
2022/06/14 07:44:09;;;;;;;18.60;8.40;;;;;;;15.33;54.56;102299.06;5071730;28;20363;-56
2022/06/14 07:46:56;;;;;;;14.07;7.90;;;;;;;15.36;51.52;102298.44;5071503;28;20040;-56
2022/06/14 07:49:30;;;;;;;14.55;7.95;;;;;;;15.40;51.76;102305.09;5071780;28;20215;-57
2022/06/14 07:52:17;;;;;;;14.30;7.95;;;;;;;15.37;52.37;102292.59;5071611;28;20430;-57
2022/06/14 07:54:49;;;;;;;12.73;8.27;;;;;;;15.43;51.94;102293.34;5071365;28;20036;-57
2022/06/14 07:57:28;;;;;;;15.52;8.50;;;;;;;15.49;51.63;102297.69;5071535;28;20028;-57
2022/06/14 08:03:15;;;;;;;16.08;8.00;;;;;;;15.46;51.48;102298.28;5071201;28;20035;-57
2022/06/14 08:05:46;;;;;;;15.82;8.05;;;;;;;15.50;51.95;102278.97;5071291;28;20093;-58
2022/06/14 08:08:17;;;;;;;15.35;8.10;;;;;;;15.56;51.00;102295.31;5071203;28;20103;-57
2022/06/14 08:10:47;;;;;;;13.88;7.65;;;;;;;15.60;51.20;102296.38;5071142;28;20085;-57
2022/06/14 08:13:17;;;;;;;15.10;7.85;;;;;;;15.64;51.89;102284.59;5071042;28;20158;-56
2022/06/14 08:15:48;;;;;;;20.55;8.45;;;;;;;15.64;50.93;102281.81;5071317;28;20111;-58
2022/06/14 08:18:35;;;;;;;16.25;8.18;;;;;;;15.86;52.16;102284.78;5070979;28;20036;-54
2022/06/14 08:21:09;;;;;;;18.17;8.70;;;;;;;16.00;52.89;102281.22;5071036;28;20100;-56
2022/06/14 08:23:52;;;;;;;19.95;9.70;;;;;;;16.09;51.76;102270.13;5071031;28;20107;-57
2022/06/14 08:26:50;;;;;;;15.95;8.05;;;;;;;16.25;51.86;102274.28;5070790;28;20155;-57
2022/06/14 08:29:22;;;;;;;16.48;8.80;;;;;;;16.33;50.85;102281.94;5070503;28;20067;-58
2022/06/14 08:31:56;;;;;;;18.40;8.90;;;;;;;16.29;51.26;102283.69;5070719;28;20078;-57
2022/06/14 08:34:25;;;;;;;;;;;;;;;16.31;52.27;102278.63;5084604;28;20110;-57
2022/06/14 08:36:50;;;;;;;15.73;8.50;;;;;;;16.42;51.21;102278.44;5090975;28;20174;-61
2022/06/14 08:39:35;;;;;;;17.77;8.40;;;;;;;16.38;50.07;102250.28;5090721;28;20032;-57
2022/06/14 08:42:14;;;;;;;15.60;8.18;;;;;;;16.38;49.76;102253.91;5090912;28;20307;-55
2022/06/14 08:45:10;;;;;;;15.05;8.40;;;;;;;16.62;51.02;102268.78;5090728;28;20028;-56
2022/06/14 08:47:42;;;;;;;19.33;8.60;;;;;;;16.74;50.32;102268.22;5088488;28;20505;-55
2022/06/14 08:50:14;;;;;;;17.88;8.60;;;;;;;16.73;50.00;102252.59;5090761;28;20060;-56
2022/06/14 08:52:48;;;;;;;14.27;8.32;;;;;;;16.96;49.54;102268.31;5088876;28;20058;-56
2022/06/14 08:55:28;;;;;;;15.02;8.30;;;;;;;17.20;49.14;102269.16;5090246;28;20630;-56
2022/06/14 08:58:08;;;;;;;17.83;8.25;;;;;;;17.27;48.68;102272.34;5090393;28;20077;-58
2022/06/14 09:00:59;;;;;;;18.05;8.77;;;;;;;17.17;48.76;102256.66;5090549;28;20024;-57
2022/06/14 09:04:04;;;;;;;17.30;8.98;;;;;;;17.06;48.28;102267.22;5090168;28;20036;-56
2022/06/14 09:06:55;;;;;;;18.02;8.75;;;;;;;17.05;49.76;102262.78;5090203;28;20446;-56
2022/06/14 09:09:52;;;;;;;16.85;8.50;;;;;;;17.18;49.74;102263.06;5090916;28;20034;-56
2022/06/14 09:12:34;;;;;;;17.65;8.43;;;;;;;17.32;49.38;102258.25;5090729;28;20047;-57
2022/06/14 09:15:30;;;;;;;16.90;8.70;;;;;;;17.44;48.71;102261.25;5089877;28;20036;-57
2022/06/14 09:18:12;;;;;;;17.45;8.63;;;;;;;17.73;48.99;102264.75;5089750;28;20036;-56
2022/06/14 09:20:47;;;;;;;17.67;8.30;;;;;;;17.67;46.72;102254.81;5090707;28;20490;-57
2022/06/14 09:23:24;;;;;;;18.02;9.02;;;;;;;17.65;47.68;102260.75;5090568;28;20046;-57
2022/06/14 09:26:37;;;;;;;15.93;8.60;;;;;;;17.86;47.75;102255.41;5090312;28;20056;-56
2022/06/14 09:29:21;;;;;;;17.65;9.20;;;;;;;17.82;45.93;102253.56;5042980;28;20055;-57
2022/06/14 09:32:05;;;;;;;15.38;8.10;;;;;;;17.91;45.66;102257.25;5090339;28;20053;-57
2022/06/14 09:34:30;;;;;;;;;;;;;;;18.16;46.85;102257.72;5090410;28;20089;-57
2022/06/14 09:36:59;;;;;;;16.73;8.70;;;;;;;18.02;45.75;102261.44;5090268;28;20297;-57
2022/06/14 09:39:49;;;;;;;14.93;8.93;;;;;;;18.06;47.22;102254.06;5090261;28;20028;-57
2022/06/14 09:42:33;;;;;;;16.02;8.60;;;;;;;18.19;45.90;102257.06;5090058;28;20024;-56
2022/06/14 09:45:30;;;;;;;14.10;8.13;;;;;;;18.29;46.55;102253.97;5090029;28;20751;-56
2022/06/14 09:47:58;;;;;;;16.70;8.60;;;;;;;18.26;44.79;102245.38;5086060;28;20036;-56
2022/06/14 09:50:39;;;;;;;14.65;7.88;;;;;;;18.18;45.62;102247.03;5089769;28;20024;-56
2022/06/14 09:53:07;;;;;;;14.60;8.20;;;;;;;18.07;45.31;102243.69;5089123;28;20742;-57
2022/06/14 09:55:53;;;;;;;16.73;8.02;;;;;;;18.13;44.90;102239.59;5088154;28;20035;-57
2022/06/14 09:58:36;;;;;;;15.02;8.13;;;;;;;18.29;46.15;102237.16;5089795;28;20028;-57
2022/06/14 10:01:14;;;;;;;17.75;8.50;;;;;;;18.34;45.03;102231.41;5089754;28;20510;-57
2022/06/14 10:04:17;;;;;;;16.42;8.57;;;;;;;18.50;46.13;102225.34;5089933;28;20059;-57
2022/06/14 10:07:13;;;;;;;16.13;8.60;;;;;;;18.63;44.98;102224.38;5089693;28;20035;-57
2022/06/14 10:09:57;;;;;;;13.90;8.20;;;;;;;18.67;45.18;102227.34;5088529;28;20343;-57
2022/06/14 10:13:00;;;;;;;16.35;8.02;;;;;;;18.62;44.43;102233.09;5089905;28;20457;-57
2022/06/14 10:15:47;;;;;;;15.45;8.45;;;;;;;18.52;44.94;102225.84;5089398;28;20039;-56
2022/06/14 10:18:34;;;;;;;15.32;8.10;;;;;;;18.80;44.77;102217.94;5089124;28;20039;-57
2022/06/14 10:21:22;;;;;;;17.35;8.38;;;;;;;19.15;45.17;102215.16;5088937;28;20081;-56
2022/06/14 10:24:06;;;;;;;17.25;8.20;;;;;;;19.33;44.02;102220.75;5089233;28;20036;-58
2022/06/14 10:29:59;;;;;;;16.75;8.32;;;;;;;19.12;43.42;102206.59;5089517;28;20105;-56
2022/06/14 10:32:49;;;;;;;17.05;8.90;;;;;;;19.24;43.32;102208.72;5086430;28;20039;-56
2022/06/14 10:35:14;;;;;;;15.93;8.30;;;;;;;19.31;44.46;102204.25;5078488;28;20028;-59
2022/06/14 10:38:05;;;;;;;14.65;8.00;;;;;;;19.39;43.42;102191.34;5075356;28;20063;-56
2022/06/14 10:40:40;;;;;;;16.23;8.20;;;;;;;19.61;44.52;102192.28;5078477;28;20033;-57
2022/06/14 10:43:35;;;;;;;17.40;8.70;;;;;;;19.72;43.87;102192.72;5077511;28;20024;-55
2022/06/14 10:46:08;;;;;;;16.77;8.82;;;;;;;19.47;42.68;102173.66;5079167;28;20111;-57
2022/06/14 10:48:33;;;;;;;20.10;9.48;;;;;;;19.38;41.96;102203.72;5076655;28;20029;-57
2022/06/14 10:51:40;;;;;;;18.00;8.77;;;;;;;19.52;43.73;102181.06;5068615;28;20431;-57
2022/06/14 10:54:16;;;;;;;16.73;8.80;;;;;;;19.53;42.31;102168.69;5066468;28;20314;-57
2022/06/14 10:56:41;;;;;;;17.90;8.88;;;;;;;19.71;42.53;102175.06;5070809;28;20115;-58
2022/06/14 10:59:25;;;;;;;16.57;9.03;;;;;;;19.73;41.58;102169.94;5070395;28;20175;-58
2022/06/14 11:02:17;;;;;;;16.02;8.43;;;;;;;19.85;41.51;102174.00;5069137;28;20306;-58
2022/06/14 11:05:16;;;;;;;14.90;8.05;;;;;;;19.85;41.52;102168.38;5071271;28;20024;-58
2022/06/14 11:08:00;;;;;;;16.20;8.48;;;;;;;19.76;42.10;102160.03;5070920;28;20041;-57
2022/06/14 11:10:34;;;;;;;16.42;8.95;;;;;;;19.97;42.14;102165.72;5070800;28;20103;-57
2022/06/14 11:13:22;;;;;;;17.55;9.10;;;;;;;20.10;42.15;102159.03;5070979;28;20025;-57
2022/06/14 11:15:50;;;;;;;17.55;9.00;;;;;;;20.21;41.49;102162.28;5070933;28;20044;-58
2022/06/14 11:18:36;;;;;;;20.10;9.70;;;;;;;20.32;41.05;102150.63;5070644;28;20029;-58
2022/06/14 11:21:26;;;;;;;17.60;9.40;;;;;;;20.19;41.60;102156.16;5071386;28;20105;-58
2022/06/14 11:23:58;;;;;;;16.25;9.32;;;;;;;20.26;41.38;102150.81;5083212;28;20039;-57
2022/06/14 11:26:48;;;;;;;18.10;9.15;;;;;;;20.32;39.74;102148.63;5087326;28;20487;-56
2022/06/14 11:29:24;;;;;;;16.95;9.25;;;;;;;20.35;39.86;102144.34;5081525;28;20044;-57
2022/06/14 11:32:02;;;;;;;18.08;9.18;;;;;;;20.32;39.55;102143.00;5073932;28;20029;-58
2022/06/14 11:34:34;;;;;;;19.90;9.60;;;;;;;20.21;39.23;102153.03;5070876;28;20025;-57
2022/06/14 11:37:27;;;;;;;17.77;9.68;;;;;;;20.03;39.47;102141.06;5071026;28;20104;-56
2022/06/14 11:40:04;;;;;;;17.23;9.30;;;;;;;20.05;40.72;102135.94;5074463;28;20032;-57
2022/06/14 11:42:42;;;;;;;17.55;9.48;;;;;;;20.36;41.21;102135.56;5074344;28;20036;-58
2022/06/14 11:45:32;;;;;;;18.13;9.55;;;;;;;20.61;41.26;102123.63;5074276;28;20483;-56
2022/06/14 11:48:15;;;;;;;17.35;9.70;;;;;;;20.71;40.73;102123.19;5074914;28;20123;-56
2022/06/14 11:50:59;;;;;;;18.25;9.70;;;;;;;20.90;41.39;102117.06;5094723;28;20107;-57
2022/06/14 11:53:24;;;;;;;;;;;;;;;21.11;40.73;102122.63;5094880;28;20428;-57
2022/06/14 11:56:07;;;;;;;17.83;9.47;;;;;;;21.25;40.50;102121.50;5094354;28;19912;-57
2022/06/14 11:58:39;;;;;;;18.25;9.80;;;;;;;21.25;40.64;102113.91;5094178;28;20047;-57
2022/06/14 12:01:24;;;;;;;16.60;9.40;;;;;;;21.34;39.91;102117.44;5094348;28;20043;-57
2022/06/14 12:04:17;;;;;;;17.52;10.05;;;;;;;21.09;40.04;102115.72;5094310;28;20480;-58
2022/06/14 12:06:58;;;;;;;19.52;9.55;;;;;;;21.14;40.25;102113.50;5093867;28;20111;-57
2022/06/14 12:09:38;;;;;;;18.10;9.60;;;;;;;21.24;40.10;102108.59;5093930;28;20117;-58
2022/06/14 12:12:39;;;;;;;16.58;9.40;;;;;;;21.06;39.33;102106.00;5093902;28;20028;-58
2022/06/14 12:15:10;;;;;;;17.60;8.90;;;;;;;21.01;39.42;102089.34;5093863;28;20032;-57
2022/06/14 12:17:45;;;;;;;17.95;9.45;;;;;;;20.90;38.82;102105.81;5093935;28;20043;-59
2022/06/14 12:20:16;;;;;;;17.25;9.48;;;;;;;20.76;38.76;102116.56;5094233;28;20070;-57